sensor_id;sensor_type;location;lat;lon;timestamp;temperature;humidity
2899;DHT22;1459;50.864;6.438;2022-08-01T00:00:35;21.70;99.90
2899;DHT22;1459;50.864;6.438;2022-08-01T00:03:03;21.70;99.90
2899;DHT22;1459;50.864;6.438;2022-08-01T00:05:31;21.70;99.90
2899;DHT22;1459;50.864;6.438;2022-08-01T00:07:59;21.70;99.90
2899;DHT22;1459;50.864;6.438;2022-08-01T00:10:26;21.60;99.90
2899;DHT22;1459;50.864;6.438;2022-08-01T00:12:53;21.60;99.90
2899;DHT22;1459;50.864;6.438;2022-08-01T00:15:20;21.60;99.90
2899;DHT22;1459;50.864;6.438;2022-08-01T00:17:47;21.60;99.90
2899;DHT22;1459;50.864;6.438;2022-08-01T00:20:14;21.50;99.90
2899;DHT22;1459;50.864;6.438;2022-08-01T00:22:41;21.40;99.90
2899;DHT22;1459;50.864;6.438;2022-08-01T00:25:10;21.30;99.90
2899;DHT22;1459;50.864;6.438;2022-08-01T00:27:37;21.30;99.90
2899;DHT22;1459;50.864;6.438;2022-08-01T00:30:05;21.20;99.90
2899;DHT22;1459;50.864;6.438;2022-08-01T00:32:32;21.10;99.90
2899;DHT22;1459;50.864;6.438;2022-08-01T00:34:59;21.00;99.90
2899;DHT22;1459;50.864;6.438;2022-08-01T00:37:26;20.90;99.90
2899;DHT22;1459;50.864;6.438;2022-08-01T00:39:53;20.90;99.90
2899;DHT22;1459;50.864;6.438;2022-08-01T00:42:22;20.90;99.90
2899;DHT22;1459;50.864;6.438;2022-08-01T00:44:49;20.80;99.90
2899;DHT22;1459;50.864;6.438;2022-08-01T00:47:16;20.90;99.90
2899;DHT22;1459;50.864;6.438;2022-08-01T00:49:43;20.90;99.90
2899;DHT22;1459;50.864;6.438;2022-08-01T00:52:10;20.90;99.90
2899;DHT22;1459;50.864;6.438;2022-08-01T00:54:39;20.90;99.90
2899;DHT22;1459;50.864;6.438;2022-08-01T00:57:06;20.80;99.90
2899;DHT22;1459;50.864;6.438;2022-08-01T00:59:35;20.80;99.90
2899;DHT22;1459;50.864;6.438;2022-08-01T01:02:02;20.80;99.90
2899;DHT22;1459;50.864;6.438;2022-08-01T01:04:30;20.90;99.90
2899;DHT22;1459;50.864;6.438;2022-08-01T01:07:02;20.90;99.90
2899;DHT22;1459;50.864;6.438;2022-08-01T01:09:38;20.80;99.90
2899;DHT22;1459;50.864;6.438;2022-08-01T01:12:15;20.80;99.90
2899;DHT22;1459;50.864;6.438;2022-08-01T01:14:52;20.80;99.90
2899;DHT22;1459;50.864;6.438;2022-08-01T01:17:26;20.80;99.90
2899;DHT22;1459;50.864;6.438;2022-08-01T01:19:56;20.60;99.90
2899;DHT22;1459;50.864;6.438;2022-08-01T11:42:41;20.60;99.90
2899;DHT22;1459;50.864;6.438;2022-08-01T12:37:46;26.00;99.90
2899;DHT22;1459;50.864;6.438;2022-08-01T12:40:15;27.30;99.90
2899;DHT22;1459;50.864;6.438;2022-08-01T12:42:46;27.40;99.90
2899;DHT22;1459;50.864;6.438;2022-08-01T12:45:15;27.40;99.90
2899;DHT22;1459;50.864;6.438;2022-08-01T12:47:44;27.50;99.90
2899;DHT22;1459;50.864;6.438;2022-08-01T12:50:15;27.50;99.90
2899;DHT22;1459;50.864;6.438;2022-08-01T12:52:42;27.50;99.90
2899;DHT22;1459;50.864;6.438;2022-08-01T12:55:12;27.50;99.90
2899;DHT22;1459;50.864;6.438;2022-08-01T12:57:41;27.60;99.90
2899;DHT22;1459;50.864;6.438;2022-08-01T13:00:20;27.60;99.90
2899;DHT22;1459;50.864;6.438;2022-08-01T13:02:49;27.50;99.90
2899;DHT22;1459;50.864;6.438;2022-08-01T13:05:17;27.40;99.90
2899;DHT22;1459;50.864;6.438;2022-08-01T13:07:47;27.60;99.90
2899;DHT22;1459;50.864;6.438;2022-08-01T13:10:23;27.70;99.90
2899;DHT22;1459;50.864;6.438;2022-08-01T13:12:52;27.70;99.90
2899;DHT22;1459;50.864;6.438;2022-08-01T13:15:28;27.60;99.90
2899;DHT22;1459;50.864;6.438;2022-08-01T13:17:57;27.70;99.90
2899;DHT22;1459;50.864;6.438;2022-08-01T13:20:33;27.70;99.90
2899;DHT22;1459;50.864;6.438;2022-08-01T13:23:11;27.80;99.90
2899;DHT22;1459;50.864;6.438;2022-08-01T13:25:52;28.10;99.90
2899;DHT22;1459;50.864;6.438;2022-08-01T13:28:21;28.20;99.80
2899;DHT22;1459;50.864;6.438;2022-08-01T13:30:55;28.30;99.20
2899;DHT22;1459;50.864;6.438;2022-08-01T13:33:23;28.30;99.00
2899;DHT22;1459;50.864;6.438;2022-08-01T13:35:51;28.20;98.90
2899;DHT22;1459;50.864;6.438;2022-08-01T13:38:18;28.30;98.80
2899;DHT22;1459;50.864;6.438;2022-08-01T13:40:45;28.40;98.50
2899;DHT22;1459;50.864;6.438;2022-08-01T13:43:12;28.30;98.40
2899;DHT22;1459;50.864;6.438;2022-08-01T13:45:40;28.40;98.10
2899;DHT22;1459;50.864;6.438;2022-08-01T13:48:09;28.40;97.50
2899;DHT22;1459;50.864;6.438;2022-08-01T13:50:36;28.30;97.50
2899;DHT22;1459;50.864;6.438;2022-08-01T13:53:03;28.30;97.40
2899;DHT22;1459;50.864;6.438;2022-08-01T13:55:30;28.40;97.80
2899;DHT22;1459;50.864;6.438;2022-08-01T13:57:57;28.40;97.50
2899;DHT22;1459;50.864;6.438;2022-08-01T14:00:24;28.40;97.50
2899;DHT22;1459;50.864;6.438;2022-08-01T14:02:51;28.40;97.50
2899;DHT22;1459;50.864;6.438;2022-08-01T14:05:19;28.50;96.70
2899;DHT22;1459;50.864;6.438;2022-08-01T14:07:46;28.50;96.60
2899;DHT22;1459;50.864;6.438;2022-08-01T14:10:13;28.50;96.20
2899;DHT22;1459;50.864;6.438;2022-08-01T14:12:40;28.40;95.80
2899;DHT22;1459;50.864;6.438;2022-08-01T14:17:35;28.70;95.70
2899;DHT22;1459;50.864;6.438;2022-08-01T14:20:03;28.60;96.10
2899;DHT22;1459;50.864;6.438;2022-08-01T14:22:32;28.70;96.00
2899;DHT22;1459;50.864;6.438;2022-08-01T14:24:59;28.70;95.80
2899;DHT22;1459;50.864;6.438;2022-08-01T14:27:26;28.70;95.70
2899;DHT22;1459;50.864;6.438;2022-08-01T14:29:56;28.60;95.60
2899;DHT22;1459;50.864;6.438;2022-08-01T14:32:23;28.60;95.60
2899;DHT22;1459;50.864;6.438;2022-08-01T14:34:50;28.50;95.90
2899;DHT22;1459;50.864;6.438;2022-08-01T14:37:17;28.50;95.90
2899;DHT22;1459;50.864;6.438;2022-08-01T14:39:45;28.60;96.10
2899;DHT22;1459;50.864;6.438;2022-08-01T15:24:16;30.00;95.60
2899;DHT22;1459;50.864;6.438;2022-08-01T15:26:43;30.10;96.60
2899;DHT22;1459;50.864;6.438;2022-08-01T15:31:39;31.00;95.10
2899;DHT22;1459;50.864;6.438;2022-08-01T15:34:06;31.00;96.00
2899;DHT22;1459;50.864;6.438;2022-08-01T15:36:33;31.20;95.50
2899;DHT22;1459;50.864;6.438;2022-08-01T15:39:00;31.30;95.40
2899;DHT22;1459;50.864;6.438;2022-08-01T15:41:28;31.50;95.10
2899;DHT22;1459;50.864;6.438;2022-08-01T15:43:55;31.00;95.40
2899;DHT22;1459;50.864;6.438;2022-08-01T15:48:50;31.70;94.60
2899;DHT22;1459;50.864;6.438;2022-08-01T15:51:17;31.70;94.40
2899;DHT22;1459;50.864;6.438;2022-08-01T15:53:44;31.10;94.70
2899;DHT22;1459;50.864;6.438;2022-08-01T15:56:12;30.70;95.00
2899;DHT22;1459;50.864;6.438;2022-08-01T15:58:39;31.10;94.90
2899;DHT22;1459;50.864;6.438;2022-08-01T16:03:35;32.40;92.80
2899;DHT22;1459;50.864;6.438;2022-08-01T16:06:02;32.20;92.80
2899;DHT22;1459;50.864;6.438;2022-08-01T16:08:29;31.30;93.30
2899;DHT22;1459;50.864;6.438;2022-08-01T16:10:56;30.60;94.30
2899;DHT22;1459;50.864;6.438;2022-08-01T16:13:23;30.00;95.40
2899;DHT22;1459;50.864;6.438;2022-08-01T16:15:50;30.10;95.90
2899;DHT22;1459;50.864;6.438;2022-08-01T16:18:18;30.40;95.50
2899;DHT22;1459;50.864;6.438;2022-08-01T16:20:46;30.60;95.30
2899;DHT22;1459;50.864;6.438;2022-08-01T16:23:13;30.40;95.10
2899;DHT22;1459;50.864;6.438;2022-08-01T16:28:09;31.30;94.80
2899;DHT22;1459;50.864;6.438;2022-08-01T16:30:36;31.90;94.40
2899;DHT22;1459;50.864;6.438;2022-08-01T16:33:04;31.90;93.60
2899;DHT22;1459;50.864;6.438;2022-08-01T16:35:31;32.20;93.30
2899;DHT22;1459;50.864;6.438;2022-08-01T16:37:59;32.50;93.00
2899;DHT22;1459;50.864;6.438;2022-08-01T16:45:21;32.90;91.30
2899;DHT22;1459;50.864;6.438;2022-08-01T16:47:48;32.50;91.80
2899;DHT22;1459;50.864;6.438;2022-08-01T16:52:42;31.50;92.10
2899;DHT22;1459;50.864;6.438;2022-08-01T16:57:38;30.20;93.60
2899;DHT22;1459;50.864;6.438;2022-08-01T17:00:07;29.90;94.70
2899;DHT22;1459;50.864;6.438;2022-08-01T17:02:35;29.90;94.90
2899;DHT22;1459;50.864;6.438;2022-08-01T17:05:03;30.10;94.70
2899;DHT22;1459;50.864;6.438;2022-08-01T17:07:30;30.30;94.70
2899;DHT22;1459;50.864;6.438;2022-08-01T17:12:27;31.20;93.70
2899;DHT22;1459;50.864;6.438;2022-08-01T17:14:54;32.00;92.70
2899;DHT22;1459;50.864;6.438;2022-08-01T17:17:22;32.60;91.70
2899;DHT22;1459;50.864;6.438;2022-08-01T17:19:49;33.00;91.40
2899;DHT22;1459;50.864;6.438;2022-08-01T18:23:49;30.80;84.20
2899;DHT22;1459;50.864;6.438;2022-08-01T18:26:16;26.40;94.80
2899;DHT22;1459;50.864;6.438;2022-08-01T18:28:43;26.20;95.60
2899;DHT22;1459;50.864;6.438;2022-08-01T18:31:10;26.10;96.20
2899;DHT22;1459;50.864;6.438;2022-08-01T19:05:41;25.90;96.60
2899;DHT22;1459;50.864;6.438;2022-08-01T19:08:08;23.80;99.90
2899;DHT22;1459;50.864;6.438;2022-08-01T19:57:30;23.70;99.90
2899;DHT22;1459;50.864;6.438;2022-08-01T20:19:46;22.20;99.90
2899;DHT22;1459;50.864;6.438;2022-08-01T20:22:17;21.50;99.90
2899;DHT22;1459;50.864;6.438;2022-08-01T20:24:50;21.40;99.90
2899;DHT22;1459;50.864;6.438;2022-08-01T20:59:28;21.40;99.90
2899;DHT22;1459;50.864;6.438;2022-08-01T21:02:05;20.40;99.90
2899;DHT22;1459;50.864;6.438;2022-08-01T21:04:40;20.30;99.90
2899;DHT22;1459;50.864;6.438;2022-08-01T21:07:21;20.20;99.90
2899;DHT22;1459;50.864;6.438;2022-08-01T21:09:53;20.20;99.90
2899;DHT22;1459;50.864;6.438;2022-08-01T21:12:28;20.10;99.90
2899;DHT22;1459;50.864;6.438;2022-08-01T21:15:01;20.00;99.90
2899;DHT22;1459;50.864;6.438;2022-08-01T21:17:36;19.90;99.90
2899;DHT22;1459;50.864;6.438;2022-08-01T21:20:06;19.80;99.90
2899;DHT22;1459;50.864;6.438;2022-08-01T21:22:36;19.80;99.90
2899;DHT22;1459;50.864;6.438;2022-08-01T21:25:05;19.70;99.90
2899;DHT22;1459;50.864;6.438;2022-08-01T21:27:34;19.60;99.90
2899;DHT22;1459;50.864;6.438;2022-08-01T21:30:04;19.50;99.90
2899;DHT22;1459;50.864;6.438;2022-08-01T21:35:00;19.50;99.90
2899;DHT22;1459;50.864;6.438;2022-08-01T21:37:29;19.40;99.90
2899;DHT22;1459;50.864;6.438;2022-08-01T21:39:57;19.30;99.90
2899;DHT22;1459;50.864;6.438;2022-08-01T21:42:26;19.30;99.90
2899;DHT22;1459;50.864;6.438;2022-08-01T21:44:58;19.20;99.90
2899;DHT22;1459;50.864;6.438;2022-08-01T21:47:28;19.20;99.90
2899;DHT22;1459;50.864;6.438;2022-08-01T21:49:59;19.10;99.90
2899;DHT22;1459;50.864;6.438;2022-08-01T21:52:31;19.10;99.90
2899;DHT22;1459;50.864;6.438;2022-08-01T21:55:03;19.00;99.90
2899;DHT22;1459;50.864;6.438;2022-08-01T21:57:43;19.00;99.90
2899;DHT22;1459;50.864;6.438;2022-08-01T22:00:20;19.00;99.90
2899;DHT22;1459;50.864;6.438;2022-08-01T22:02:52;18.90;99.90
2899;DHT22;1459;50.864;6.438;2022-08-01T22:05:24;18.90;99.90
2899;DHT22;1459;50.864;6.438;2022-08-01T22:07:54;18.90;99.90
2899;DHT22;1459;50.864;6.438;2022-08-01T22:10:24;18.80;99.90
2899;DHT22;1459;50.864;6.438;2022-08-01T22:12:52;18.80;99.90
2899;DHT22;1459;50.864;6.438;2022-08-01T22:15:23;18.80;99.90
2899;DHT22;1459;50.864;6.438;2022-08-01T22:17:51;18.70;99.90
2899;DHT22;1459;50.864;6.438;2022-08-01T22:20:19;18.70;99.90
2899;DHT22;1459;50.864;6.438;2022-08-01T22:22:47;18.60;99.90
2899;DHT22;1459;50.864;6.438;2022-08-01T22:25:15;18.60;99.90
2899;DHT22;1459;50.864;6.438;2022-08-01T22:27:43;18.60;99.90
2899;DHT22;1459;50.864;6.438;2022-08-01T22:30:11;18.50;99.90
2899;DHT22;1459;50.864;6.438;2022-08-01T22:32:41;18.50;99.90
2899;DHT22;1459;50.864;6.438;2022-08-01T22:35:10;18.40;99.90
2899;DHT22;1459;50.864;6.438;2022-08-01T22:37:38;18.40;99.90
2899;DHT22;1459;50.864;6.438;2022-08-01T22:40:08;18.40;99.90
2899;DHT22;1459;50.864;6.438;2022-08-01T22:42:40;18.30;99.90
2899;DHT22;1459;50.864;6.438;2022-08-01T22:47:57;18.30;99.90
2899;DHT22;1459;50.864;6.438;2022-08-01T22:50:32;18.10;99.90
2899;DHT22;1459;50.864;6.438;2022-08-01T22:53:10;18.10;99.90
2899;DHT22;1459;50.864;6.438;2022-08-01T22:55:40;18.10;99.90
2899;DHT22;1459;50.864;6.438;2022-08-01T22:58:10;18.00;99.90
2899;DHT22;1459;50.864;6.438;2022-08-01T23:00:38;18.00;99.90
2899;DHT22;1459;50.864;6.438;2022-08-01T23:03:14;18.00;99.90
2899;DHT22;1459;50.864;6.438;2022-08-01T23:05:45;17.90;99.90
2899;DHT22;1459;50.864;6.438;2022-08-01T23:08:15;17.90;99.90
2899;DHT22;1459;50.864;6.438;2022-08-01T23:10:44;17.90;99.90
2899;DHT22;1459;50.864;6.438;2022-08-01T23:13:15;17.80;99.90
2899;DHT22;1459;50.864;6.438;2022-08-01T23:15:45;17.90;99.90
2899;DHT22;1459;50.864;6.438;2022-08-01T23:18:15;17.80;99.90
2899;DHT22;1459;50.864;6.438;2022-08-01T23:20:42;17.70;99.90
2899;DHT22;1459;50.864;6.438;2022-08-01T23:23:10;17.70;99.90
2899;DHT22;1459;50.864;6.438;2022-08-01T23:25:38;17.60;99.90
2899;DHT22;1459;50.864;6.438;2022-08-01T23:28:06;17.60;99.90
2899;DHT22;1459;50.864;6.438;2022-08-01T23:30:34;17.60;99.90
2899;DHT22;1459;50.864;6.438;2022-08-01T23:33:02;17.50;99.90
2899;DHT22;1459;50.864;6.438;2022-08-01T23:35:30;17.50;99.90
2899;DHT22;1459;50.864;6.438;2022-08-01T23:37:58;17.40;99.90
2899;DHT22;1459;50.864;6.438;2022-08-01T23:40:25;17.30;99.90
2899;DHT22;1459;50.864;6.438;2022-08-01T23:42:53;17.30;99.90
2899;DHT22;1459;50.864;6.438;2022-08-01T23:45:21;17.30;99.90
2899;DHT22;1459;50.864;6.438;2022-08-01T23:47:48;17.20;99.90
2899;DHT22;1459;50.864;6.438;2022-08-01T23:50:15;17.20;99.90
2899;DHT22;1459;50.864;6.438;2022-08-01T23:52:43;17.10;99.90
2899;DHT22;1459;50.864;6.438;2022-08-01T23:55:11;17.10;99.90
2899;DHT22;1459;50.864;6.438;2022-08-01T23:57:38;17.00;99.90
